sensor_id;sensor_type;location;lat;lon;timestamp;P1;durP1;ratioP1;P2;durP2;ratioP2
60610;SDS011;46439;51.164;13.572;2024-03-29T00:01:17;1.30;;;1.00;;
60610;SDS011;46439;51.164;13.572;2024-03-29T00:03:46;2.70;;;1.10;;
60610;SDS011;46439;51.164;13.572;2024-03-29T00:06:14;2.30;;;1.00;;
60610;SDS011;46439;51.164;13.572;2024-03-29T00:08:42;1.20;;;0.90;;
60610;SDS011;46439;51.164;13.572;2024-03-29T00:11:10;2.60;;;1.00;;
60610;SDS011;46439;51.164;13.572;2024-03-29T00:13:38;2.80;;;1.10;;
60610;SDS011;46439;51.164;13.572;2024-03-29T00:16:06;3.60;;;1.10;;
60610;SDS011;46439;51.164;13.572;2024-03-29T00:18:34;1.80;;;1.30;;
60610;SDS011;46439;51.164;13.572;2024-03-29T00:21:22;1.30;;;1.10;;
60610;SDS011;46439;51.164;13.572;2024-03-29T00:23:50;4.20;;;0.90;;
60610;SDS011;46439;51.164;13.572;2024-03-29T00:26:19;2.30;;;1.10;;
60610;SDS011;46439;51.164;13.572;2024-03-29T00:28:50;1.10;;;1.00;;
60610;SDS011;46439;51.164;13.572;2024-03-29T00:31:18;2.70;;;1.10;;
60610;SDS011;46439;51.164;13.572;2024-03-29T00:33:49;2.20;;;0.80;;
60610;SDS011;46439;51.164;13.572;2024-03-29T00:36:17;1.20;;;1.00;;
60610;SDS011;46439;51.164;13.572;2024-03-29T00:38:46;2.90;;;1.00;;
60610;SDS011;46439;51.164;13.572;2024-03-29T00:41:14;2.30;;;0.90;;
60610;SDS011;46439;51.164;13.572;2024-03-29T00:43:44;1.90;;;1.00;;
60610;SDS011;46439;51.164;13.572;2024-03-29T00:46:12;2.70;;;1.00;;
60610;SDS011;46439;51.164;13.572;2024-03-29T00:48:41;2.40;;;0.90;;
60610;SDS011;46439;51.164;13.572;2024-03-29T00:51:11;2.60;;;1.10;;
60610;SDS011;46439;51.164;13.572;2024-03-29T00:53:39;1.40;;;1.00;;
60610;SDS011;46439;51.164;13.572;2024-03-29T00:56:07;4.40;;;1.10;;
60610;SDS011;46439;51.164;13.572;2024-03-29T00:58:35;1.40;;;0.90;;
60610;SDS011;46439;51.164;13.572;2024-03-29T01:01:03;1.10;;;1.00;;
60610;SDS011;46439;51.164;13.572;2024-03-29T01:03:31;3.30;;;1.20;;
60610;SDS011;46439;51.164;13.572;2024-03-29T01:05:59;2.90;;;1.10;;
60610;SDS011;46439;51.164;13.572;2024-03-29T01:08:27;3.30;;;1.30;;
60610;SDS011;46439;51.164;13.572;2024-03-29T01:10:57;1.90;;;1.00;;
60610;SDS011;46439;51.164;13.572;2024-03-29T01:13:31;1.60;;;0.90;;
60610;SDS011;46439;51.164;13.572;2024-03-29T01:15:59;2.30;;;1.10;;
60610;SDS011;46439;51.164;13.572;2024-03-29T01:18:27;2.70;;;0.90;;
60610;SDS011;46439;51.164;13.572;2024-03-29T01:20:55;1.90;;;1.00;;
60610;SDS011;46439;51.164;13.572;2024-03-29T01:23:23;2.20;;;1.30;;
60610;SDS011;46439;51.164;13.572;2024-03-29T01:25:51;3.30;;;1.90;;
60610;SDS011;46439;51.164;13.572;2024-03-29T01:28:19;5.20;;;1.70;;
60610;SDS011;46439;51.164;13.572;2024-03-29T01:30:52;3.80;;;1.70;;
60610;SDS011;46439;51.164;13.572;2024-03-29T01:33:21;2.70;;;1.50;;
60610;SDS011;46439;51.164;13.572;2024-03-29T01:35:49;2.40;;;1.30;;
60610;SDS011;46439;51.164;13.572;2024-03-29T01:38:17;2.40;;;1.20;;
60610;SDS011;46439;51.164;13.572;2024-03-29T01:40:44;2.90;;;1.10;;
60610;SDS011;46439;51.164;13.572;2024-03-29T01:43:12;3.10;;;1.30;;
60610;SDS011;46439;51.164;13.572;2024-03-29T01:45:41;4.60;;;1.30;;
60610;SDS011;46439;51.164;13.572;2024-03-29T01:48:12;3.00;;;1.30;;
60610;SDS011;46439;51.164;13.572;2024-03-29T01:51:01;2.20;;;1.00;;
60610;SDS011;46439;51.164;13.572;2024-03-29T01:53:30;1.90;;;1.00;;
60610;SDS011;46439;51.164;13.572;2024-03-29T01:55:58;1.20;;;1.00;;
60610;SDS011;46439;51.164;13.572;2024-03-29T01:58:27;1.50;;;0.90;;
60610;SDS011;46439;51.164;13.572;2024-03-29T02:00:57;2.00;;;1.10;;
60610;SDS011;46439;51.164;13.572;2024-03-29T02:03:28;2.60;;;1.20;;
60610;SDS011;46439;51.164;13.572;2024-03-29T02:06:00;2.30;;;1.10;;
60610;SDS011;46439;51.164;13.572;2024-03-29T02:08:30;2.20;;;1.00;;
60610;SDS011;46439;51.164;13.572;2024-03-29T02:11:00;1.80;;;1.10;;
60610;SDS011;46439;51.164;13.572;2024-03-29T02:13:30;2.10;;;1.10;;
60610;SDS011;46439;51.164;13.572;2024-03-29T02:15:58;2.70;;;1.40;;
60610;SDS011;46439;51.164;13.572;2024-03-29T02:18:26;2.80;;;1.10;;
60610;SDS011;46439;51.164;13.572;2024-03-29T02:20:54;1.70;;;1.00;;
60610;SDS011;46439;51.164;13.572;2024-03-29T02:23:24;2.30;;;0.90;;
60610;SDS011;46439;51.164;13.572;2024-03-29T02:25:55;2.80;;;0.90;;
60610;SDS011;46439;51.164;13.572;2024-03-29T02:28:24;1.80;;;1.10;;
60610;SDS011;46439;51.164;13.572;2024-03-29T02:30:52;4.20;;;1.30;;
60610;SDS011;46439;51.164;13.572;2024-03-29T02:33:21;1.90;;;1.10;;
60610;SDS011;46439;51.164;13.572;2024-03-29T02:35:49;2.20;;;1.10;;
60610;SDS011;46439;51.164;13.572;2024-03-29T02:38:18;3.80;;;1.40;;
60610;SDS011;46439;51.164;13.572;2024-03-29T02:40:47;2.20;;;1.00;;
60610;SDS011;46439;51.164;13.572;2024-03-29T02:43:22;1.80;;;1.00;;
60610;SDS011;46439;51.164;13.572;2024-03-29T02:45:50;5.20;;;1.10;;
60610;SDS011;46439;51.164;13.572;2024-03-29T02:48:18;1.70;;;1.10;;
60610;SDS011;46439;51.164;13.572;2024-03-29T02:50:46;2.70;;;1.00;;
60610;SDS011;46439;51.164;13.572;2024-03-29T02:53:14;3.00;;;1.10;;
60610;SDS011;46439;51.164;13.572;2024-03-29T02:55:42;2.70;;;0.80;;
60610;SDS011;46439;51.164;13.572;2024-03-29T02:58:10;5.00;;;1.30;;
60610;SDS011;46439;51.164;13.572;2024-03-29T03:00:38;3.80;;;1.10;;
60610;SDS011;46439;51.164;13.572;2024-03-29T03:03:06;2.50;;;1.10;;
60610;SDS011;46439;51.164;13.572;2024-03-29T03:05:33;2.50;;;1.10;;
60610;SDS011;46439;51.164;13.572;2024-03-29T03:08:02;2.40;;;1.20;;
60610;SDS011;46439;51.164;13.572;2024-03-29T03:10:48;4.50;;;1.10;;
60610;SDS011;46439;51.164;13.572;2024-03-29T03:13:22;3.40;;;1.10;;
60610;SDS011;46439;51.164;13.572;2024-03-29T03:15:50;2.00;;;1.10;;
60610;SDS011;46439;51.164;13.572;2024-03-29T03:18:18;3.50;;;1.30;;
60610;SDS011;46439;51.164;13.572;2024-03-29T03:20:51;2.10;;;1.10;;
60610;SDS011;46439;51.164;13.572;2024-03-29T03:23:19;1.50;;;0.90;;
60610;SDS011;46439;51.164;13.572;2024-03-29T03:25:52;1.70;;;0.80;;
60610;SDS011;46439;51.164;13.572;2024-03-29T03:28:21;1.90;;;1.10;;
60610;SDS011;46439;51.164;13.572;2024-03-29T03:30:49;4.90;;;1.30;;
60610;SDS011;46439;51.164;13.572;2024-03-29T03:33:18;1.20;;;0.90;;
60610;SDS011;46439;51.164;13.572;2024-03-29T03:35:46;1.40;;;1.00;;
60610;SDS011;46439;51.164;13.572;2024-03-29T03:38:14;1.80;;;1.00;;
60610;SDS011;46439;51.164;13.572;2024-03-29T03:40:42;3.50;;;0.90;;
60610;SDS011;46439;51.164;13.572;2024-03-29T03:43:10;1.60;;;0.90;;
60610;SDS011;46439;51.164;13.572;2024-03-29T03:45:39;2.50;;;0.90;;
60610;SDS011;46439;51.164;13.572;2024-03-29T03:48:08;2.60;;;1.10;;
60610;SDS011;46439;51.164;13.572;2024-03-29T03:50:37;3.10;;;1.00;;
60610;SDS011;46439;51.164;13.572;2024-03-29T03:53:07;2.50;;;1.20;;
60610;SDS011;46439;51.164;13.572;2024-03-29T03:55:36;4.70;;;1.10;;
60610;SDS011;46439;51.164;13.572;2024-03-29T03:58:04;3.40;;;1.20;;
60610;SDS011;46439;51.164;13.572;2024-03-29T04:00:32;2.60;;;1.10;;
60610;SDS011;46439;51.164;13.572;2024-03-29T04:03:00;1.60;;;1.20;;
60610;SDS011;46439;51.164;13.572;2024-03-29T04:05:30;2.30;;;1.00;;
60610;SDS011;46439;51.164;13.572;2024-03-29T04:07:58;2.30;;;1.20;;
60610;SDS011;46439;51.164;13.572;2024-03-29T04:10:26;2.00;;;0.90;;
60610;SDS011;46439;51.164;13.572;2024-03-29T04:12:54;4.70;;;1.10;;
60610;SDS011;46439;51.164;13.572;2024-03-29T04:15:22;3.00;;;1.20;;
60610;SDS011;46439;51.164;13.572;2024-03-29T04:17:50;2.90;;;1.20;;
60610;SDS011;46439;51.164;13.572;2024-03-29T04:20:18;3.30;;;1.10;;
60610;SDS011;46439;51.164;13.572;2024-03-29T04:22:47;3.30;;;0.90;;
60610;SDS011;46439;51.164;13.572;2024-03-29T04:25:15;4.00;;;1.00;;
60610;SDS011;46439;51.164;13.572;2024-03-29T04:27:43;1.50;;;1.00;;
60610;SDS011;46439;51.164;13.572;2024-03-29T04:30:12;2.80;;;1.10;;
60610;SDS011;46439;51.164;13.572;2024-03-29T04:32:42;1.30;;;1.20;;
60610;SDS011;46439;51.164;13.572;2024-03-29T04:35:12;4.70;;;1.30;;
60610;SDS011;46439;51.164;13.572;2024-03-29T04:37:48;2.10;;;1.10;;
60610;SDS011;46439;51.164;13.572;2024-03-29T04:40:23;5.10;;;1.10;;
60610;SDS011;46439;51.164;13.572;2024-03-29T04:42:57;2.10;;;1.10;;
60610;SDS011;46439;51.164;13.572;2024-03-29T04:45:30;1.30;;;1.20;;
60610;SDS011;46439;51.164;13.572;2024-03-29T04:48:08;2.60;;;1.10;;
60610;SDS011;46439;51.164;13.572;2024-03-29T04:50:44;2.60;;;1.40;;
60610;SDS011;46439;51.164;13.572;2024-03-29T04:53:18;2.60;;;1.20;;
60610;SDS011;46439;51.164;13.572;2024-03-29T04:55:57;3.10;;;1.40;;
60610;SDS011;46439;51.164;13.572;2024-03-29T04:58:34;2.30;;;1.20;;
60610;SDS011;46439;51.164;13.572;2024-03-29T05:01:07;4.30;;;1.60;;
60610;SDS011;46439;51.164;13.572;2024-03-29T05:03:39;2.20;;;1.20;;
60610;SDS011;46439;51.164;13.572;2024-03-29T05:06:11;2.40;;;1.30;;
60610;SDS011;46439;51.164;13.572;2024-03-29T05:08:43;2.90;;;1.20;;
60610;SDS011;46439;51.164;13.572;2024-03-29T05:11:14;2.30;;;1.30;;
60610;SDS011;46439;51.164;13.572;2024-03-29T05:13:47;3.00;;;1.50;;
60610;SDS011;46439;51.164;13.572;2024-03-29T05:16:21;2.30;;;1.50;;
60610;SDS011;46439;51.164;13.572;2024-03-29T05:18:55;2.60;;;1.40;;
60610;SDS011;46439;51.164;13.572;2024-03-29T05:21:32;4.50;;;1.50;;
60610;SDS011;46439;51.164;13.572;2024-03-29T05:24:07;2.60;;;1.30;;
60610;SDS011;46439;51.164;13.572;2024-03-29T05:26:37;2.70;;;1.40;;
60610;SDS011;46439;51.164;13.572;2024-03-29T05:29:08;4.60;;;1.40;;
60610;SDS011;46439;51.164;13.572;2024-03-29T05:31:45;1.80;;;1.30;;
60610;SDS011;46439;51.164;13.572;2024-03-29T05:34:15;2.30;;;1.40;;
60610;SDS011;46439;51.164;13.572;2024-03-29T05:36:45;2.30;;;1.30;;
60610;SDS011;46439;51.164;13.572;2024-03-29T05:39:14;3.70;;;1.50;;
60610;SDS011;46439;51.164;13.572;2024-03-29T05:41:49;3.30;;;1.70;;
60610;SDS011;46439;51.164;13.572;2024-03-29T05:44:31;2.50;;;1.50;;
60610;SDS011;46439;51.164;13.572;2024-03-29T05:47:09;4.40;;;1.30;;
60610;SDS011;46439;51.164;13.572;2024-03-29T05:49:48;2.70;;;1.60;;
60610;SDS011;46439;51.164;13.572;2024-03-29T05:52:21;3.80;;;1.40;;
60610;SDS011;46439;51.164;13.572;2024-03-29T05:54:51;2.70;;;1.50;;
60610;SDS011;46439;51.164;13.572;2024-03-29T05:57:21;2.90;;;1.50;;
60610;SDS011;46439;51.164;13.572;2024-03-29T05:59:57;2.70;;;1.60;;
60610;SDS011;46439;51.164;13.572;2024-03-29T06:02:32;3.10;;;1.60;;
60610;SDS011;46439;51.164;13.572;2024-03-29T06:05:02;3.90;;;1.50;;
60610;SDS011;46439;51.164;13.572;2024-03-29T06:07:37;3.60;;;1.50;;
60610;SDS011;46439;51.164;13.572;2024-03-29T06:10:12;2.70;;;1.70;;
60610;SDS011;46439;51.164;13.572;2024-03-29T06:12:41;4.10;;;1.80;;
60610;SDS011;46439;51.164;13.572;2024-03-29T06:15:22;3.20;;;1.50;;
60610;SDS011;46439;51.164;13.572;2024-03-29T06:18:18;1.80;;;1.40;;
60610;SDS011;46439;51.164;13.572;2024-03-29T06:20:52;4.10;;;1.60;;
60610;SDS011;46439;51.164;13.572;2024-03-29T06:23:27;2.70;;;1.50;;
60610;SDS011;46439;51.164;13.572;2024-03-29T06:26:01;2.90;;;1.50;;
60610;SDS011;46439;51.164;13.572;2024-03-29T06:28:34;2.70;;;1.30;;
60610;SDS011;46439;51.164;13.572;2024-03-29T06:31:12;3.20;;;1.40;;
60610;SDS011;46439;51.164;13.572;2024-03-29T06:33:45;2.00;;;1.50;;
60610;SDS011;46439;51.164;13.572;2024-03-29T06:36:18;5.10;;;1.90;;
60610;SDS011;46439;51.164;13.572;2024-03-29T06:38:51;2.70;;;1.50;;
60610;SDS011;46439;51.164;13.572;2024-03-29T06:41:24;2.20;;;1.50;;
60610;SDS011;46439;51.164;13.572;2024-03-29T06:43:58;2.40;;;1.50;;
60610;SDS011;46439;51.164;13.572;2024-03-29T06:46:29;4.00;;;1.50;;
60610;SDS011;46439;51.164;13.572;2024-03-29T06:49:07;2.50;;;1.40;;
60610;SDS011;46439;51.164;13.572;2024-03-29T06:51:40;3.40;;;1.50;;
60610;SDS011;46439;51.164;13.572;2024-03-29T06:54:12;4.90;;;1.70;;
60610;SDS011;46439;51.164;13.572;2024-03-29T06:56:43;4.30;;;1.50;;
60610;SDS011;46439;51.164;13.572;2024-03-29T06:59:18;3.10;;;1.60;;
60610;SDS011;46439;51.164;13.572;2024-03-29T07:01:48;1.60;;;1.10;;
60610;SDS011;46439;51.164;13.572;2024-03-29T07:04:21;4.10;;;1.70;;
60610;SDS011;46439;51.164;13.572;2024-03-29T07:06:54;2.00;;;1.60;;
60610;SDS011;46439;51.164;13.572;2024-03-29T07:09:27;3.60;;;1.80;;
60610;SDS011;46439;51.164;13.572;2024-03-29T07:11:58;2.30;;;1.60;;
60610;SDS011;46439;51.164;13.572;2024-03-29T07:14:29;3.90;;;1.90;;
60610;SDS011;46439;51.164;13.572;2024-03-29T07:17:01;5.20;;;2.00;;
60610;SDS011;46439;51.164;13.572;2024-03-29T07:19:30;2.20;;;1.50;;
60610;SDS011;46439;51.164;13.572;2024-03-29T07:22:01;2.90;;;1.50;;
60610;SDS011;46439;51.164;13.572;2024-03-29T07:24:31;2.60;;;1.40;;
60610;SDS011;46439;51.164;13.572;2024-03-29T07:27:02;3.10;;;1.70;;
60610;SDS011;46439;51.164;13.572;2024-03-29T07:29:34;3.30;;;1.40;;
60610;SDS011;46439;51.164;13.572;2024-03-29T07:32:10;3.30;;;1.50;;
60610;SDS011;46439;51.164;13.572;2024-03-29T07:34:46;2.70;;;1.70;;
60610;SDS011;46439;51.164;13.572;2024-03-29T07:37:25;2.00;;;1.50;;
60610;SDS011;46439;51.164;13.572;2024-03-29T07:39:59;2.90;;;1.40;;
60610;SDS011;46439;51.164;13.572;2024-03-29T07:42:36;2.90;;;1.50;;
60610;SDS011;46439;51.164;13.572;2024-03-29T07:45:07;4.30;;;1.50;;
60610;SDS011;46439;51.164;13.572;2024-03-29T07:47:46;2.00;;;1.50;;
60610;SDS011;46439;51.164;13.572;2024-03-29T07:50:21;2.40;;;1.60;;
60610;SDS011;46439;51.164;13.572;2024-03-29T07:52:57;2.20;;;1.50;;
60610;SDS011;46439;51.164;13.572;2024-03-29T07:55:31;2.10;;;1.40;;
60610;SDS011;46439;51.164;13.572;2024-03-29T07:58:01;3.60;;;1.50;;
60610;SDS011;46439;51.164;13.572;2024-03-29T08:00:39;2.80;;;1.50;;
60610;SDS011;46439;51.164;13.572;2024-03-29T08:03:10;3.30;;;1.40;;
60610;SDS011;46439;51.164;13.572;2024-03-29T08:05:53;2.70;;;1.30;;
60610;SDS011;46439;51.164;13.572;2024-03-29T08:11:11;2.70;;;1.50;;
60610;SDS011;46439;51.164;13.572;2024-03-29T08:13:41;2.40;;;1.40;;
60610;SDS011;46439;51.164;13.572;2024-03-29T08:16:11;2.60;;;1.40;;
60610;SDS011;46439;51.164;13.572;2024-03-29T08:18:45;4.70;;;1.60;;
60610;SDS011;46439;51.164;13.572;2024-03-29T08:21:21;2.70;;;1.70;;
60610;SDS011;46439;51.164;13.572;2024-03-29T08:23:50;2.50;;;1.50;;
60610;SDS011;46439;51.164;13.572;2024-03-29T08:26:22;2.80;;;1.60;;
60610;SDS011;46439;51.164;13.572;2024-03-29T08:28:56;3.20;;;1.80;;
60610;SDS011;46439;51.164;13.572;2024-03-29T08:31:28;4.50;;;1.60;;
60610;SDS011;46439;51.164;13.572;2024-03-29T08:34:04;3.90;;;1.50;;
60610;SDS011;46439;51.164;13.572;2024-03-29T08:36:39;1.90;;;1.30;;
60610;SDS011;46439;51.164;13.572;2024-03-29T08:39:10;2.30;;;1.50;;
60610;SDS011;46439;51.164;13.572;2024-03-29T08:41:40;3.50;;;1.40;;
60610;SDS011;46439;51.164;13.572;2024-03-29T08:44:12;3.20;;;1.30;;
60610;SDS011;46439;51.164;13.572;2024-03-29T08:46:46;2.70;;;1.30;;
60610;SDS011;46439;51.164;13.572;2024-03-29T08:49:21;3.20;;;1.50;;
60610;SDS011;46439;51.164;13.572;2024-03-29T08:51:52;2.40;;;1.50;;
60610;SDS011;46439;51.164;13.572;2024-03-29T08:54:23;2.20;;;1.40;;
60610;SDS011;46439;51.164;13.572;2024-03-29T08:56:56;4.40;;;2.00;;
60610;SDS011;46439;51.164;13.572;2024-03-29T08:59:33;3.40;;;1.60;;
60610;SDS011;46439;51.164;13.572;2024-03-29T09:02:07;3.50;;;1.60;;
60610;SDS011;46439;51.164;13.572;2024-03-29T09:04:38;4.20;;;1.70;;
60610;SDS011;46439;51.164;13.572;2024-03-29T09:07:13;4.00;;;1.80;;
60610;SDS011;46439;51.164;13.572;2024-03-29T09:09:53;4.00;;;1.60;;
60610;SDS011;46439;51.164;13.572;2024-03-29T09:12:23;2.70;;;1.60;;
60610;SDS011;46439;51.164;13.572;2024-03-29T09:17:42;2.50;;;1.60;;
60610;SDS011;46439;51.164;13.572;2024-03-29T09:20:26;2.60;;;1.80;;
60610;SDS011;46439;51.164;13.572;2024-03-29T09:22:57;2.30;;;1.80;;
60610;SDS011;46439;51.164;13.572;2024-03-29T09:25:34;3.20;;;1.60;;
60610;SDS011;46439;51.164;13.572;2024-03-29T09:28:08;2.80;;;1.70;;
60610;SDS011;46439;51.164;13.572;2024-03-29T09:30:42;1.90;;;1.30;;
60610;SDS011;46439;51.164;13.572;2024-03-29T09:33:32;1.80;;;1.30;;
60610;SDS011;46439;51.164;13.572;2024-03-29T09:36:08;2.70;;;1.70;;
60610;SDS011;46439;51.164;13.572;2024-03-29T09:38:39;4.00;;;1.60;;
60610;SDS011;46439;51.164;13.572;2024-03-29T09:41:15;3.40;;;1.80;;
60610;SDS011;46439;51.164;13.572;2024-03-29T09:43:47;2.80;;;1.70;;
60610;SDS011;46439;51.164;13.572;2024-03-29T09:46:24;3.10;;;1.60;;
60610;SDS011;46439;51.164;13.572;2024-03-29T09:49:02;4.90;;;1.60;;
60610;SDS011;46439;51.164;13.572;2024-03-29T09:51:35;2.00;;;1.40;;
60610;SDS011;46439;51.164;13.572;2024-03-29T09:54:07;2.40;;;1.40;;
60610;SDS011;46439;51.164;13.572;2024-03-29T09:56:43;2.20;;;1.30;;
60610;SDS011;46439;51.164;13.572;2024-03-29T09:59:17;2.10;;;1.30;;
60610;SDS011;46439;51.164;13.572;2024-03-29T10:01:49;3.10;;;1.10;;
60610;SDS011;46439;51.164;13.572;2024-03-29T10:06:55;2.60;;;1.30;;
60610;SDS011;46439;51.164;13.572;2024-03-29T10:09:30;3.00;;;1.40;;
60610;SDS011;46439;51.164;13.572;2024-03-29T10:12:04;2.60;;;1.20;;
60610;SDS011;46439;51.164;13.572;2024-03-29T10:14:44;1.60;;;1.10;;
60610;SDS011;46439;51.164;13.572;2024-03-29T10:17:22;2.30;;;1.40;;
60610;SDS011;46439;51.164;13.572;2024-03-29T10:19:58;3.70;;;1.20;;
60610;SDS011;46439;51.164;13.572;2024-03-29T10:22:40;1.40;;;1.30;;
60610;SDS011;46439;51.164;13.572;2024-03-29T10:25:12;1.90;;;1.20;;
60610;SDS011;46439;51.164;13.572;2024-03-29T10:27:43;2.10;;;1.10;;
60610;SDS011;46439;51.164;13.572;2024-03-29T10:30:21;3.80;;;1.30;;
60610;SDS011;46439;51.164;13.572;2024-03-29T10:32:57;1.90;;;1.20;;
60610;SDS011;46439;51.164;13.572;2024-03-29T10:35:31;1.50;;;1.10;;
60610;SDS011;46439;51.164;13.572;2024-03-29T10:38:05;4.80;;;1.50;;
60610;SDS011;46439;51.164;13.572;2024-03-29T10:40:37;1.80;;;1.10;;
60610;SDS011;46439;51.164;13.572;2024-03-29T10:43:11;5.80;;;1.40;;
60610;SDS011;46439;51.164;13.572;2024-03-29T10:45:45;3.10;;;1.40;;
60610;SDS011;46439;51.164;13.572;2024-03-29T10:48:22;1.90;;;1.20;;
60610;SDS011;46439;51.164;13.572;2024-03-29T10:50:55;2.50;;;1.30;;
60610;SDS011;46439;51.164;13.572;2024-03-29T10:53:26;2.40;;;1.60;;
60610;SDS011;46439;51.164;13.572;2024-03-29T10:56:07;3.20;;;1.60;;
60610;SDS011;46439;51.164;13.572;2024-03-29T10:58:43;4.60;;;1.80;;
60610;SDS011;46439;51.164;13.572;2024-03-29T11:01:18;2.30;;;1.50;;
60610;SDS011;46439;51.164;13.572;2024-03-29T11:03:52;3.60;;;1.70;;
60610;SDS011;46439;51.164;13.572;2024-03-29T11:06:32;6.80;;;2.30;;
60610;SDS011;46439;51.164;13.572;2024-03-29T11:09:10;4.30;;;2.10;;
60610;SDS011;46439;51.164;13.572;2024-03-29T11:11:48;4.90;;;1.90;;
60610;SDS011;46439;51.164;13.572;2024-03-29T11:14:23;5.80;;;2.10;;
60610;SDS011;46439;51.164;13.572;2024-03-29T11:17:03;3.30;;;1.90;;
60610;SDS011;46439;51.164;13.572;2024-03-29T11:19:37;2.80;;;1.60;;
60610;SDS011;46439;51.164;13.572;2024-03-29T11:22:09;3.90;;;2.10;;
60610;SDS011;46439;51.164;13.572;2024-03-29T11:24:40;2.50;;;1.80;;
60610;SDS011;46439;51.164;13.572;2024-03-29T11:27:11;2.60;;;1.90;;
60610;SDS011;46439;51.164;13.572;2024-03-29T11:29:50;6.20;;;2.20;;
60610;SDS011;46439;51.164;13.572;2024-03-29T11:32:39;3.80;;;2.00;;
60610;SDS011;46439;51.164;13.572;2024-03-29T11:35:18;4.70;;;2.10;;
60610;SDS011;46439;51.164;13.572;2024-03-29T11:38:08;4.20;;;1.80;;
60610;SDS011;46439;51.164;13.572;2024-03-29T11:40:45;7.20;;;2.80;;
60610;SDS011;46439;51.164;13.572;2024-03-29T11:43:35;3.80;;;1.90;;
60610;SDS011;46439;51.164;13.572;2024-03-29T11:46:08;4.30;;;1.80;;
60610;SDS011;46439;51.164;13.572;2024-03-29T11:48:42;4.60;;;2.00;;
60610;SDS011;46439;51.164;13.572;2024-03-29T11:51:22;3.20;;;1.60;;
60610;SDS011;46439;51.164;13.572;2024-03-29T11:53:58;3.60;;;1.60;;
60610;SDS011;46439;51.164;13.572;2024-03-29T11:56:37;3.90;;;1.50;;
60610;SDS011;46439;51.164;13.572;2024-03-29T11:59:14;3.80;;;2.10;;
60610;SDS011;46439;51.164;13.572;2024-03-29T12:01:51;2.30;;;1.60;;
60610;SDS011;46439;51.164;13.572;2024-03-29T12:04:32;3.90;;;2.10;;
60610;SDS011;46439;51.164;13.572;2024-03-29T12:07:07;3.50;;;1.40;;
60610;SDS011;46439;51.164;13.572;2024-03-29T12:09:38;4.10;;;1.90;;
60610;SDS011;46439;51.164;13.572;2024-03-29T12:12:09;2.50;;;1.60;;
60610;SDS011;46439;51.164;13.572;2024-03-29T12:14:46;4.10;;;2.00;;
60610;SDS011;46439;51.164;13.572;2024-03-29T12:17:17;7.50;;;4.10;;
60610;SDS011;46439;51.164;13.572;2024-03-29T12:19:48;6.70;;;2.20;;
60610;SDS011;46439;51.164;13.572;2024-03-29T12:22:28;5.10;;;2.10;;
60610;SDS011;46439;51.164;13.572;2024-03-29T12:25:00;3.10;;;1.80;;
60610;SDS011;46439;51.164;13.572;2024-03-29T12:27:33;4.10;;;1.80;;
60610;SDS011;46439;51.164;13.572;2024-03-29T12:30:04;4.90;;;1.70;;
60610;SDS011;46439;51.164;13.572;2024-03-29T12:32:38;3.40;;;1.80;;
60610;SDS011;46439;51.164;13.572;2024-03-29T12:35:16;1.90;;;1.50;;
60610;SDS011;46439;51.164;13.572;2024-03-29T12:37:59;5.50;;;1.70;;
60610;SDS011;46439;51.164;13.572;2024-03-29T12:40:38;2.00;;;1.50;;
60610;SDS011;46439;51.164;13.572;2024-03-29T12:43:11;3.00;;;1.60;;
60610;SDS011;46439;51.164;13.572;2024-03-29T12:45:46;2.60;;;1.70;;
60610;SDS011;46439;51.164;13.572;2024-03-29T12:48:18;2.40;;;1.60;;
60610;SDS011;46439;51.164;13.572;2024-03-29T12:50:59;1.80;;;1.60;;
60610;SDS011;46439;51.164;13.572;2024-03-29T12:53:37;4.10;;;1.70;;
60610;SDS011;46439;51.164;13.572;2024-03-29T12:56:10;2.00;;;1.50;;
60610;SDS011;46439;51.164;13.572;2024-03-29T12:58:43;1.90;;;1.50;;
60610;SDS011;46439;51.164;13.572;2024-03-29T13:01:13;3.80;;;1.70;;
60610;SDS011;46439;51.164;13.572;2024-03-29T13:03:42;2.30;;;1.50;;
60610;SDS011;46439;51.164;13.572;2024-03-29T13:08:49;1.70;;;1.40;;
60610;SDS011;46439;51.164;13.572;2024-03-29T13:11:23;2.80;;;1.30;;
60610;SDS011;46439;51.164;13.572;2024-03-29T13:13:58;2.80;;;1.60;;
60610;SDS011;46439;51.164;13.572;2024-03-29T13:16:35;3.40;;;1.60;;
60610;SDS011;46439;51.164;13.572;2024-03-29T13:19:10;2.70;;;1.60;;
60610;SDS011;46439;51.164;13.572;2024-03-29T13:21:38;2.80;;;1.50;;
60610;SDS011;46439;51.164;13.572;2024-03-29T13:24:09;4.20;;;1.90;;
60610;SDS011;46439;51.164;13.572;2024-03-29T13:26:43;3.70;;;1.70;;
60610;SDS011;46439;51.164;13.572;2024-03-29T13:29:16;2.60;;;1.60;;
60610;SDS011;46439;51.164;13.572;2024-03-29T13:31:50;2.50;;;1.50;;
60610;SDS011;46439;51.164;13.572;2024-03-29T13:34:25;3.10;;;2.00;;
60610;SDS011;46439;51.164;13.572;2024-03-29T13:37:01;5.60;;;1.90;;
60610;SDS011;46439;51.164;13.572;2024-03-29T13:39:39;3.20;;;1.80;;
60610;SDS011;46439;51.164;13.572;2024-03-29T13:42:14;5.00;;;1.80;;
60610;SDS011;46439;51.164;13.572;2024-03-29T13:44:44;2.60;;;1.40;;
60610;SDS011;46439;51.164;13.572;2024-03-29T13:47:18;3.90;;;1.90;;
60610;SDS011;46439;51.164;13.572;2024-03-29T13:49:51;3.70;;;1.90;;
60610;SDS011;46439;51.164;13.572;2024-03-29T13:52:24;2.00;;;1.50;;
60610;SDS011;46439;51.164;13.572;2024-03-29T13:54:58;3.40;;;1.70;;
60610;SDS011;46439;51.164;13.572;2024-03-29T13:57:31;2.40;;;1.50;;
60610;SDS011;46439;51.164;13.572;2024-03-29T14:00:03;2.60;;;1.50;;
60610;SDS011;46439;51.164;13.572;2024-03-29T14:02:36;3.10;;;1.60;;
60610;SDS011;46439;51.164;13.572;2024-03-29T14:05:08;2.80;;;1.90;;
60610;SDS011;46439;51.164;13.572;2024-03-29T14:07:43;1.70;;;1.60;;
60610;SDS011;46439;51.164;13.572;2024-03-29T14:10:15;3.20;;;1.70;;
60610;SDS011;46439;51.164;13.572;2024-03-29T14:12:49;3.20;;;1.60;;
60610;SDS011;46439;51.164;13.572;2024-03-29T14:15:23;1.90;;;1.30;;
60610;SDS011;46439;51.164;13.572;2024-03-29T14:17:58;1.80;;;1.40;;
60610;SDS011;46439;51.164;13.572;2024-03-29T14:20:33;1.90;;;1.40;;
60610;SDS011;46439;51.164;13.572;2024-03-29T14:25:52;1.60;;;1.50;;
60610;SDS011;46439;51.164;13.572;2024-03-29T14:28:25;3.10;;;1.90;;
60610;SDS011;46439;51.164;13.572;2024-03-29T14:30:59;3.20;;;2.20;;
60610;SDS011;46439;51.164;13.572;2024-03-29T14:33:30;1.90;;;1.50;;
60610;SDS011;46439;51.164;13.572;2024-03-29T14:36:05;2.00;;;1.50;;
60610;SDS011;46439;51.164;13.572;2024-03-29T14:38:40;4.00;;;1.80;;
60610;SDS011;46439;51.164;13.572;2024-03-29T14:41:12;2.90;;;1.70;;
60610;SDS011;46439;51.164;13.572;2024-03-29T14:43:51;4.50;;;1.70;;
60610;SDS011;46439;51.164;13.572;2024-03-29T14:46:23;2.70;;;1.60;;
60610;SDS011;46439;51.164;13.572;2024-03-29T14:48:53;2.60;;;1.70;;
60610;SDS011;46439;51.164;13.572;2024-03-29T14:51:33;3.50;;;1.70;;
60610;SDS011;46439;51.164;13.572;2024-03-29T14:54:06;2.20;;;1.60;;
60610;SDS011;46439;51.164;13.572;2024-03-29T14:56:39;3.60;;;1.50;;
60610;SDS011;46439;51.164;13.572;2024-03-29T14:59:15;2.20;;;1.70;;
60610;SDS011;46439;51.164;13.572;2024-03-29T15:01:49;1.60;;;1.40;;
60610;SDS011;46439;51.164;13.572;2024-03-29T15:04:18;1.00;;;1.00;;
60610;SDS011;46439;51.164;13.572;2024-03-29T15:06:50;3.60;;;1.90;;
60610;SDS011;46439;51.164;13.572;2024-03-29T15:09:19;3.00;;;2.20;;
60610;SDS011;46439;51.164;13.572;2024-03-29T15:11:52;3.40;;;1.80;;
60610;SDS011;46439;51.164;13.572;2024-03-29T15:14:25;3.10;;;1.90;;
60610;SDS011;46439;51.164;13.572;2024-03-29T15:17:00;4.30;;;2.10;;
60610;SDS011;46439;51.164;13.572;2024-03-29T15:19:34;3.50;;;1.80;;